Skip Navigation Links
NOAA logo - Click to go to the NOAA homepage
NOAA's National Weather Service
Alaska Aviation Weather Unit
  NWS logo - Click to go to the NWS homepage
Left Navbar Graphic     09 AKDT = 17 GMT

   
NOAA is celebrating 200 years of science, service, and stewardship. Visit the NOAA 200th celebration Web site to learn more.
USA.gov is the U.S. Government's official Web portal to all Federal, state and local government Web resources and services.
Facebook
NWS on Facebook

Important Change Regarding the AAWU Web Presence

 

Over the last several months, the AAWU has been working to navigate its webpages to a nationally supported server. Security, as well as other needs, have necessitated the change.  In the process, we have made an effort to enhance the functionality of our website, as well as some of our products. As of June 20, 2017, aawu.arh.noaa.gov will be discontinued. The new AAWU web address is weather.gov/aawu. It is now live and will run in-parallel with the old site until it is discontinued. Please send any feedback or questions regarding the new webpages to nws.ar.aawu.webauthors@noaa.gov.  Thank you for your patience during this time of transition.
AAWU Home :: Display TAF Add Bookmark
METAR PASO 231153Z AUTO 00000KT 10SM SCT025 BKN043 OVC065 06/04 A3005
     RMK AO2 RAE06 SLP175 P0000 60000 T00610044 10078 20061 51009
     TSNO $=

SPECI PASO 231202Z AUTO VRB04KT 10SM BKN025 BKN044 OVC050 06/04 A3005
     RMK AO2 T00610039 TSNO $=

SPECI PASO 231233Z AUTO 19006KT 10SM SCT025 OVC050 07/03 A3006 RMK AO2
     T00670028 TSNO $=

METAR PASO 231253Z AUTO 00000KT 10SM BKN034 OVC050 07/02 A3006 RMK AO2
     SLP179 T00670022 TSNO $=

PASO 231353Z AUTO 21004KT 10SM BKN041 BKN049 OVC085 06/02 A3007
     RMK AO2 SLP182 T00610017 TSNO $=

METAR PASO 231453Z AUTO 00000KT 10SM OVC046 06/01 A3007 RMK AO2 SLP183
     T00610006 51008 TSNO=

METAR PASO 231553Z AUTO 18008KT 10SM OVC047 07/01 A3008 RMK AO2
    SLP185 T00670006 TSNO=

METAR PASO 231653Z AUTO 18008KT 140V220 10SM CLR 07/M01 A3008 RMK AO2
     SLP185 T00721006 TSNO=


NOAA's National Weather Service
Alaska Aviation Weather Unit
6930 Sand Lake Road
Anchorage, AK 99502-1845
Disclaimer
Credits
Glossary
Privacy Policy
About Us
Career Opportunities
Contact AAWU Internet Services Site last modified: April, 17th 2012